sensor_id;sensor_type;location;lat;lon;timestamp;P1;durP1;ratioP1;P2;durP2;ratioP2
24407;SDS011;12542;50.924;4.516;2023-11-18T00:01:23;18.58;;;8.95;;
24407;SDS011;12542;50.924;4.516;2023-11-18T00:03:50;14.15;;;8.23;;
24407;SDS011;12542;50.924;4.516;2023-11-18T00:06:16;13.02;;;7.72;;
24407;SDS011;12542;50.924;4.516;2023-11-18T00:08:42;15.32;;;8.15;;
24407;SDS011;12542;50.924;4.516;2023-11-18T00:11:08;20.20;;;8.23;;
24407;SDS011;12542;50.924;4.516;2023-11-18T00:13:36;14.13;;;8.32;;
24407;SDS011;12542;50.924;4.516;2023-11-18T00:16:04;15.02;;;7.68;;
24407;SDS011;12542;50.924;4.516;2023-11-18T00:18:30;18.65;;;8.93;;
24407;SDS011;12542;50.924;4.516;2023-11-18T00:20:57;17.63;;;8.10;;
24407;SDS011;12542;50.924;4.516;2023-11-18T00:23:23;21.35;;;9.55;;
24407;SDS011;12542;50.924;4.516;2023-11-18T00:25:49;18.65;;;9.98;;
24407;SDS011;12542;50.924;4.516;2023-11-18T00:28:15;24.45;;;9.38;;
24407;SDS011;12542;50.924;4.516;2023-11-18T00:30:40;19.17;;;9.60;;
24407;SDS011;12542;50.924;4.516;2023-11-18T00:33:06;19.90;;;9.38;;
24407;SDS011;12542;50.924;4.516;2023-11-18T00:35:33;24.73;;;11.73;;
24407;SDS011;12542;50.924;4.516;2023-11-18T00:37:59;20.35;;;10.40;;
24407;SDS011;12542;50.924;4.516;2023-11-18T00:40:25;19.80;;;10.43;;
24407;SDS011;12542;50.924;4.516;2023-11-18T00:42:50;23.98;;;11.18;;
24407;SDS011;12542;50.924;4.516;2023-11-18T00:45:16;21.73;;;10.70;;
24407;SDS011;12542;50.924;4.516;2023-11-18T00:47:44;24.52;;;10.90;;
24407;SDS011;12542;50.924;4.516;2023-11-18T00:50:10;24.40;;;11.45;;
24407;SDS011;12542;50.924;4.516;2023-11-18T00:52:38;23.90;;;11.35;;
24407;SDS011;12542;50.924;4.516;2023-11-18T00:55:06;26.70;;;11.60;;
24407;SDS011;12542;50.924;4.516;2023-11-18T00:57:33;23.08;;;11.02;;
24407;SDS011;12542;50.924;4.516;2023-11-18T00:59:58;20.45;;;10.30;;
24407;SDS011;12542;50.924;4.516;2023-11-18T01:02:24;24.38;;;10.82;;
24407;SDS011;12542;50.924;4.516;2023-11-18T01:04:50;23.13;;;10.95;;
24407;SDS011;12542;50.924;4.516;2023-11-18T01:07:16;20.10;;;10.65;;
24407;SDS011;12542;50.924;4.516;2023-11-18T01:09:41;22.88;;;11.48;;
24407;SDS011;12542;50.924;4.516;2023-11-18T01:12:10;22.33;;;10.77;;
24407;SDS011;12542;50.924;4.516;2023-11-18T01:14:38;24.90;;;11.35;;
24407;SDS011;12542;50.924;4.516;2023-11-18T01:17:06;21.67;;;10.60;;
24407;SDS011;12542;50.924;4.516;2023-11-18T01:19:32;23.67;;;11.55;;
24407;SDS011;12542;50.924;4.516;2023-11-18T01:21:58;23.23;;;11.40;;
24407;SDS011;12542;50.924;4.516;2023-11-18T01:24:24;19.17;;;9.88;;
24407;SDS011;12542;50.924;4.516;2023-11-18T01:26:50;21.67;;;11.45;;
24407;SDS011;12542;50.924;4.516;2023-11-18T01:29:16;20.85;;;10.63;;
24407;SDS011;12542;50.924;4.516;2023-11-18T01:31:42;27.88;;;11.45;;
24407;SDS011;12542;50.924;4.516;2023-11-18T01:34:08;24.02;;;10.80;;
24407;SDS011;12542;50.924;4.516;2023-11-18T01:36:37;17.98;;;10.02;;
24407;SDS011;12542;50.924;4.516;2023-11-18T01:39:02;24.48;;;10.60;;
24407;SDS011;12542;50.924;4.516;2023-11-18T01:41:29;21.67;;;10.98;;
24407;SDS011;12542;50.924;4.516;2023-11-18T01:43:57;24.50;;;11.02;;
24407;SDS011;12542;50.924;4.516;2023-11-18T01:46:24;15.82;;;8.77;;
24407;SDS011;12542;50.924;4.516;2023-11-18T01:48:50;18.95;;;9.35;;
24407;SDS011;12542;50.924;4.516;2023-11-18T01:51:17;25.20;;;9.35;;
24407;SDS011;12542;50.924;4.516;2023-11-18T01:53:45;16.30;;;9.70;;
24407;SDS011;12542;50.924;4.516;2023-11-18T01:56:13;19.15;;;9.68;;
24407;SDS011;12542;50.924;4.516;2023-11-18T01:58:39;18.08;;;9.65;;
24407;SDS011;12542;50.924;4.516;2023-11-18T02:01:06;16.83;;;8.82;;
24407;SDS011;12542;50.924;4.516;2023-11-18T02:03:33;19.10;;;8.90;;
24407;SDS011;12542;50.924;4.516;2023-11-18T02:06:00;19.65;;;8.88;;
24407;SDS011;12542;50.924;4.516;2023-11-18T02:08:26;16.13;;;9.02;;
24407;SDS011;12542;50.924;4.516;2023-11-18T02:11:16;18.50;;;9.07;;
24407;SDS011;12542;50.924;4.516;2023-11-18T02:13:43;20.85;;;8.73;;
24407;SDS011;12542;50.924;4.516;2023-11-18T02:16:13;16.17;;;8.70;;
24407;SDS011;12542;50.924;4.516;2023-11-18T02:18:39;17.25;;;8.95;;
24407;SDS011;12542;50.924;4.516;2023-11-18T02:21:06;16.17;;;7.88;;
24407;SDS011;12542;50.924;4.516;2023-11-18T02:23:34;16.15;;;8.23;;
24407;SDS011;12542;50.924;4.516;2023-11-18T02:26:00;18.70;;;8.23;;
24407;SDS011;12542;50.924;4.516;2023-11-18T02:28:29;14.20;;;7.00;;
24407;SDS011;12542;50.924;4.516;2023-11-18T02:30:56;15.38;;;8.82;;
24407;SDS011;12542;50.924;4.516;2023-11-18T02:33:46;16.75;;;8.50;;
24407;SDS011;12542;50.924;4.516;2023-11-18T02:39:21;17.30;;;8.30;;
24407;SDS011;12542;50.924;4.516;2023-11-18T02:41:53;15.98;;;7.75;;
24407;SDS011;12542;50.924;4.516;2023-11-18T02:44:21;18.08;;;8.35;;
24407;SDS011;12542;50.924;4.516;2023-11-18T02:46:48;19.60;;;8.77;;
24407;SDS011;12542;50.924;4.516;2023-11-18T02:49:14;20.05;;;9.15;;
24407;SDS011;12542;50.924;4.516;2023-11-18T02:51:42;15.73;;;7.45;;
24407;SDS011;12542;50.924;4.516;2023-11-18T02:54:12;16.83;;;7.47;;
24407;SDS011;12542;50.924;4.516;2023-11-18T02:56:38;22.80;;;11.57;;
24407;SDS011;12542;50.924;4.516;2023-11-18T02:59:07;15.52;;;8.40;;
24407;SDS011;12542;50.924;4.516;2023-11-18T03:01:33;16.50;;;8.57;;
24407;SDS011;12542;50.924;4.516;2023-11-18T03:03:59;14.05;;;7.20;;
24407;SDS011;12542;50.924;4.516;2023-11-18T03:06:25;18.33;;;7.97;;
24407;SDS011;12542;50.924;4.516;2023-11-18T03:08:51;15.65;;;6.65;;
24407;SDS011;12542;50.924;4.516;2023-11-18T03:11:18;15.05;;;8.60;;
24407;SDS011;12542;50.924;4.516;2023-11-18T03:13:44;15.95;;;7.28;;
24407;SDS011;12542;50.924;4.516;2023-11-18T03:16:11;16.15;;;5.70;;
24407;SDS011;12542;50.924;4.516;2023-11-18T03:18:41;13.07;;;6.03;;
24407;SDS011;12542;50.924;4.516;2023-11-18T03:21:11;14.30;;;5.50;;
24407;SDS011;12542;50.924;4.516;2023-11-18T03:23:37;17.73;;;5.97;;
24407;SDS011;12542;50.924;4.516;2023-11-18T03:26:09;12.77;;;6.40;;
24407;SDS011;12542;50.924;4.516;2023-11-18T03:28:35;12.70;;;5.70;;
24407;SDS011;12542;50.924;4.516;2023-11-18T03:31:04;14.13;;;5.75;;
24407;SDS011;12542;50.924;4.516;2023-11-18T03:33:30;12.02;;;6.00;;
24407;SDS011;12542;50.924;4.516;2023-11-18T03:35:57;11.57;;;5.70;;
24407;SDS011;12542;50.924;4.516;2023-11-18T03:38:23;11.40;;;6.35;;
24407;SDS011;12542;50.924;4.516;2023-11-18T03:40:50;9.85;;;5.20;;
24407;SDS011;12542;50.924;4.516;2023-11-18T03:43:17;12.48;;;6.40;;
24407;SDS011;12542;50.924;4.516;2023-11-18T03:45:43;15.23;;;5.53;;
24407;SDS011;12542;50.924;4.516;2023-11-18T03:48:09;12.63;;;5.25;;
24407;SDS011;12542;50.924;4.516;2023-11-18T03:50:39;11.55;;;4.80;;
24407;SDS011;12542;50.924;4.516;2023-11-18T03:53:05;12.52;;;5.38;;
24407;SDS011;12542;50.924;4.516;2023-11-18T03:55:31;12.27;;;4.50;;
24407;SDS011;12542;50.924;4.516;2023-11-18T03:57:57;11.00;;;4.50;;
24407;SDS011;12542;50.924;4.516;2023-11-18T04:00:22;9.95;;;4.57;;
24407;SDS011;12542;50.924;4.516;2023-11-18T04:02:58;15.23;;;4.70;;
24407;SDS011;12542;50.924;4.516;2023-11-18T04:05:24;10.32;;;4.05;;
24407;SDS011;12542;50.924;4.516;2023-11-18T04:07:50;11.85;;;3.80;;
24407;SDS011;12542;50.924;4.516;2023-11-18T04:10:16;9.13;;;3.65;;
24407;SDS011;12542;50.924;4.516;2023-11-18T04:12:43;10.00;;;3.15;;
24407;SDS011;12542;50.924;4.516;2023-11-18T04:15:12;10.60;;;3.20;;
24407;SDS011;12542;50.924;4.516;2023-11-18T04:17:38;13.65;;;3.55;;
24407;SDS011;12542;50.924;4.516;2023-11-18T04:20:04;9.70;;;3.05;;
24407;SDS011;12542;50.924;4.516;2023-11-18T04:22:37;7.55;;;3.08;;
24407;SDS011;12542;50.924;4.516;2023-11-18T04:25:07;9.70;;;3.03;;
24407;SDS011;12542;50.924;4.516;2023-11-18T04:27:33;12.60;;;4.25;;
24407;SDS011;12542;50.924;4.516;2023-11-18T04:30:03;12.52;;;3.50;;
24407;SDS011;12542;50.924;4.516;2023-11-18T04:32:29;7.97;;;3.47;;
24407;SDS011;12542;50.924;4.516;2023-11-18T04:34:58;13.13;;;3.78;;
24407;SDS011;12542;50.924;4.516;2023-11-18T04:37:25;9.40;;;2.90;;
24407;SDS011;12542;50.924;4.516;2023-11-18T04:39:51;13.02;;;3.60;;
24407;SDS011;12542;50.924;4.516;2023-11-18T04:42:17;11.35;;;3.83;;
24407;SDS011;12542;50.924;4.516;2023-11-18T04:44:43;11.88;;;3.38;;
24407;SDS011;12542;50.924;4.516;2023-11-18T04:47:09;11.77;;;3.78;;
24407;SDS011;12542;50.924;4.516;2023-11-18T04:49:36;14.77;;;3.80;;
24407;SDS011;12542;50.924;4.516;2023-11-18T04:52:01;5.82;;;2.60;;
24407;SDS011;12542;50.924;4.516;2023-11-18T04:54:27;12.95;;;3.35;;
24407;SDS011;12542;50.924;4.516;2023-11-18T04:56:53;10.80;;;3.20;;
24407;SDS011;12542;50.924;4.516;2023-11-18T04:59:18;8.50;;;2.88;;
24407;SDS011;12542;50.924;4.516;2023-11-18T05:01:44;11.32;;;3.45;;
24407;SDS011;12542;50.924;4.516;2023-11-18T05:04:10;10.68;;;3.72;;
24407;SDS011;12542;50.924;4.516;2023-11-18T05:06:36;14.40;;;3.15;;
24407;SDS011;12542;50.924;4.516;2023-11-18T05:09:01;8.13;;;3.10;;
24407;SDS011;12542;50.924;4.516;2023-11-18T05:11:27;7.28;;;3.28;;
24407;SDS011;12542;50.924;4.516;2023-11-18T05:13:53;10.90;;;3.15;;
24407;SDS011;12542;50.924;4.516;2023-11-18T05:16:19;13.50;;;4.07;;
24407;SDS011;12542;50.924;4.516;2023-11-18T05:18:44;7.32;;;3.17;;
24407;SDS011;12542;50.924;4.516;2023-11-18T05:21:10;13.98;;;2.85;;
24407;SDS011;12542;50.924;4.516;2023-11-18T05:23:36;22.73;;;3.60;;
24407;SDS011;12542;50.924;4.516;2023-11-18T05:26:02;13.82;;;3.22;;
24407;SDS011;12542;50.924;4.516;2023-11-18T05:28:30;9.73;;;3.03;;
24407;SDS011;12542;50.924;4.516;2023-11-18T05:30:56;24.17;;;5.15;;
24407;SDS011;12542;50.924;4.516;2023-11-18T05:33:23;11.85;;;3.53;;
24407;SDS011;12542;50.924;4.516;2023-11-18T05:35:49;10.02;;;3.60;;
24407;SDS011;12542;50.924;4.516;2023-11-18T05:38:18;11.80;;;3.38;;
24407;SDS011;12542;50.924;4.516;2023-11-18T05:40:49;19.67;;;3.50;;
24407;SDS011;12542;50.924;4.516;2023-11-18T05:43:30;12.25;;;3.90;;
24407;SDS011;12542;50.924;4.516;2023-11-18T05:46:04;11.10;;;3.80;;
24407;SDS011;12542;50.924;4.516;2023-11-18T05:48:45;9.68;;;3.45;;
24407;SDS011;12542;50.924;4.516;2023-11-18T05:51:12;13.20;;;3.85;;
24407;SDS011;12542;50.924;4.516;2023-11-18T05:53:41;16.88;;;3.17;;
24407;SDS011;12542;50.924;4.516;2023-11-18T05:56:10;11.90;;;3.42;;
24407;SDS011;12542;50.924;4.516;2023-11-18T05:58:41;12.43;;;3.28;;
24407;SDS011;12542;50.924;4.516;2023-11-18T06:01:10;17.35;;;2.75;;
24407;SDS011;12542;50.924;4.516;2023-11-18T06:03:41;12.07;;;2.63;;
24407;SDS011;12542;50.924;4.516;2023-11-18T06:06:07;10.60;;;2.90;;
24407;SDS011;12542;50.924;4.516;2023-11-18T06:08:35;10.15;;;2.05;;
24407;SDS011;12542;50.924;4.516;2023-11-18T06:11:06;9.77;;;2.47;;
24407;SDS011;12542;50.924;4.516;2023-11-18T06:18:52;10.90;;;2.50;;
24407;SDS011;12542;50.924;4.516;2023-11-18T06:21:20;11.15;;;2.58;;
24407;SDS011;12542;50.924;4.516;2023-11-18T06:23:53;10.52;;;2.38;;
24407;SDS011;12542;50.924;4.516;2023-11-18T06:26:22;9.15;;;2.92;;
24407;SDS011;12542;50.924;4.516;2023-11-18T06:28:52;8.43;;;1.80;;
24407;SDS011;12542;50.924;4.516;2023-11-18T06:31:19;8.02;;;2.38;;
24407;SDS011;12542;50.924;4.516;2023-11-18T06:33:46;9.82;;;2.40;;
24407;SDS011;12542;50.924;4.516;2023-11-18T06:38:38;9.77;;;2.08;;
24407;SDS011;12542;50.924;4.516;2023-11-18T06:41:05;10.88;;;2.45;;
24407;SDS011;12542;50.924;4.516;2023-11-18T06:43:35;10.02;;;2.35;;
24407;SDS011;12542;50.924;4.516;2023-11-18T06:46:17;16.02;;;2.75;;
24407;SDS011;12542;50.924;4.516;2023-11-18T06:48:46;13.07;;;2.97;;
24407;SDS011;12542;50.924;4.516;2023-11-18T06:51:13;10.73;;;2.28;;
24407;SDS011;12542;50.924;4.516;2023-11-18T06:53:40;10.90;;;2.05;;
24407;SDS011;12542;50.924;4.516;2023-11-18T06:56:06;12.10;;;2.42;;
24407;SDS011;12542;50.924;4.516;2023-11-18T06:58:32;6.82;;;2.25;;
24407;SDS011;12542;50.924;4.516;2023-11-18T07:00:58;9.15;;;1.90;;
24407;SDS011;12542;50.924;4.516;2023-11-18T07:03:26;9.95;;;2.17;;
24407;SDS011;12542;50.924;4.516;2023-11-18T07:05:52;15.50;;;2.45;;
24407;SDS011;12542;50.924;4.516;2023-11-18T07:08:18;9.68;;;2.30;;
24407;SDS011;12542;50.924;4.516;2023-11-18T07:10:43;7.55;;;2.20;;
24407;SDS011;12542;50.924;4.516;2023-11-18T07:13:09;8.60;;;1.83;;
24407;SDS011;12542;50.924;4.516;2023-11-18T07:15:35;16.13;;;2.38;;
24407;SDS011;12542;50.924;4.516;2023-11-18T07:18:02;11.00;;;2.53;;
24407;SDS011;12542;50.924;4.516;2023-11-18T07:20:27;10.07;;;2.30;;
24407;SDS011;12542;50.924;4.516;2023-11-18T07:22:53;8.27;;;1.60;;
24407;SDS011;12542;50.924;4.516;2023-11-18T07:25:19;8.43;;;2.40;;
24407;SDS011;12542;50.924;4.516;2023-11-18T07:27:45;10.93;;;2.55;;
24407;SDS011;12542;50.924;4.516;2023-11-18T07:30:11;9.93;;;2.38;;
24407;SDS011;12542;50.924;4.516;2023-11-18T07:32:37;7.07;;;2.40;;
24407;SDS011;12542;50.924;4.516;2023-11-18T07:35:05;11.85;;;2.83;;
24407;SDS011;12542;50.924;4.516;2023-11-18T07:37:34;9.13;;;2.25;;
24407;SDS011;12542;50.924;4.516;2023-11-18T07:40:04;11.85;;;3.00;;
24407;SDS011;12542;50.924;4.516;2023-11-18T07:42:31;11.40;;;3.70;;
24407;SDS011;12542;50.924;4.516;2023-11-18T07:45:00;15.93;;;3.28;;
24407;SDS011;12542;50.924;4.516;2023-11-18T07:47:29;14.80;;;3.67;;
24407;SDS011;12542;50.924;4.516;2023-11-18T07:49:59;15.95;;;4.20;;
24407;SDS011;12542;50.924;4.516;2023-11-18T07:52:28;20.42;;;3.30;;
24407;SDS011;12542;50.924;4.516;2023-11-18T07:54:54;13.65;;;4.53;;
24407;SDS011;12542;50.924;4.516;2023-11-18T07:57:19;11.85;;;2.97;;
24407;SDS011;12542;50.924;4.516;2023-11-18T07:59:45;10.13;;;3.03;;
24407;SDS011;12542;50.924;4.516;2023-11-18T08:02:11;11.02;;;2.72;;
24407;SDS011;12542;50.924;4.516;2023-11-18T08:04:39;8.10;;;2.90;;
24407;SDS011;12542;50.924;4.516;2023-11-18T08:07:06;17.13;;;2.95;;
24407;SDS011;12542;50.924;4.516;2023-11-18T08:09:35;9.73;;;3.38;;
24407;SDS011;12542;50.924;4.516;2023-11-18T08:12:05;12.80;;;2.83;;
24407;SDS011;12542;50.924;4.516;2023-11-18T08:14:34;8.32;;;2.58;;
24407;SDS011;12542;50.924;4.516;2023-11-18T08:17:00;9.32;;;3.10;;
24407;SDS011;12542;50.924;4.516;2023-11-18T08:19:26;9.57;;;4.22;;
24407;SDS011;12542;50.924;4.516;2023-11-18T08:21:51;5.88;;;3.13;;
24407;SDS011;12542;50.924;4.516;2023-11-18T08:24:17;10.52;;;2.95;;
24407;SDS011;12542;50.924;4.516;2023-11-18T08:26:43;8.25;;;2.75;;
24407;SDS011;12542;50.924;4.516;2023-11-18T08:29:10;10.20;;;2.53;;
24407;SDS011;12542;50.924;4.516;2023-11-18T08:31:38;6.43;;;2.55;;
24407;SDS011;12542;50.924;4.516;2023-11-18T08:34:04;7.97;;;3.00;;
24407;SDS011;12542;50.924;4.516;2023-11-18T08:36:30;8.23;;;3.53;;
24407;SDS011;12542;50.924;4.516;2023-11-18T08:38:57;10.35;;;3.22;;
24407;SDS011;12542;50.924;4.516;2023-11-18T08:41:23;8.30;;;3.20;;
24407;SDS011;12542;50.924;4.516;2023-11-18T08:43:49;11.27;;;3.22;;
24407;SDS011;12542;50.924;4.516;2023-11-18T08:46:15;11.02;;;4.15;;
24407;SDS011;12542;50.924;4.516;2023-11-18T08:48:42;9.55;;;2.75;;
24407;SDS011;12542;50.924;4.516;2023-11-18T08:51:09;9.27;;;3.17;;
24407;SDS011;12542;50.924;4.516;2023-11-18T08:53:37;8.88;;;3.00;;
24407;SDS011;12542;50.924;4.516;2023-11-18T08:56:09;10.25;;;4.03;;
24407;SDS011;12542;50.924;4.516;2023-11-18T08:58:44;11.70;;;4.25;;
24407;SDS011;12542;50.924;4.516;2023-11-18T09:01:10;11.88;;;3.65;;
24407;SDS011;12542;50.924;4.516;2023-11-18T09:03:39;12.75;;;4.18;;
24407;SDS011;12542;50.924;4.516;2023-11-18T09:06:08;10.43;;;3.70;;
24407;SDS011;12542;50.924;4.516;2023-11-18T09:08:50;14.82;;;4.95;;
24407;SDS011;12542;50.924;4.516;2023-11-18T09:11:23;8.40;;;3.63;;
24407;SDS011;12542;50.924;4.516;2023-11-18T09:13:52;11.27;;;3.83;;
24407;SDS011;12542;50.924;4.516;2023-11-18T09:16:24;11.02;;;4.13;;
24407;SDS011;12542;50.924;4.516;2023-11-18T09:18:54;9.05;;;3.72;;
24407;SDS011;12542;50.924;4.516;2023-11-18T09:21:21;6.72;;;3.53;;
24407;SDS011;12542;50.924;4.516;2023-11-18T09:23:54;8.52;;;3.40;;
24407;SDS011;12542;50.924;4.516;2023-11-18T09:26:21;14.32;;;4.25;;
24407;SDS011;12542;50.924;4.516;2023-11-18T09:28:47;13.25;;;4.03;;
24407;SDS011;12542;50.924;4.516;2023-11-18T09:31:15;13.10;;;3.33;;
24407;SDS011;12542;50.924;4.516;2023-11-18T09:33:42;12.43;;;3.83;;
24407;SDS011;12542;50.924;4.516;2023-11-18T09:36:17;8.00;;;3.20;;
24407;SDS011;12542;50.924;4.516;2023-11-18T09:38:43;10.75;;;3.63;;
24407;SDS011;12542;50.924;4.516;2023-11-18T09:41:12;7.93;;;3.28;;
24407;SDS011;12542;50.924;4.516;2023-11-18T09:43:39;7.85;;;3.55;;
24407;SDS011;12542;50.924;4.516;2023-11-18T09:46:10;13.27;;;3.55;;
24407;SDS011;12542;50.924;4.516;2023-11-18T09:51:58;6.50;;;3.08;;
24407;SDS011;12542;50.924;4.516;2023-11-18T09:57:23;8.20;;;4.07;;
24407;SDS011;12542;50.924;4.516;2023-11-18T10:00:02;10.30;;;3.67;;
24407;SDS011;12542;50.924;4.516;2023-11-18T10:02:44;9.18;;;3.85;;
24407;SDS011;12542;50.924;4.516;2023-11-18T10:05:12;10.50;;;4.05;;
24407;SDS011;12542;50.924;4.516;2023-11-18T10:07:39;9.20;;;3.13;;
24407;SDS011;12542;50.924;4.516;2023-11-18T10:10:09;9.57;;;3.55;;
24407;SDS011;12542;50.924;4.516;2023-11-18T10:12:45;7.32;;;3.30;;
24407;SDS011;12542;50.924;4.516;2023-11-18T10:15:23;10.00;;;3.97;;
24407;SDS011;12542;50.924;4.516;2023-11-18T10:17:52;4.80;;;2.60;;
24407;SDS011;12542;50.924;4.516;2023-11-18T10:20:45;8.80;;;3.10;;
24407;SDS011;12542;50.924;4.516;2023-11-18T10:23:15;11.68;;;4.15;;
24407;SDS011;12542;50.924;4.516;2023-11-18T10:25:54;9.93;;;3.50;;
24407;SDS011;12542;50.924;4.516;2023-11-18T10:28:26;7.93;;;3.72;;
24407;SDS011;12542;50.924;4.516;2023-11-18T10:31:00;11.45;;;4.13;;
24407;SDS011;12542;50.924;4.516;2023-11-18T10:33:36;10.40;;;3.97;;
24407;SDS011;12542;50.924;4.516;2023-11-18T10:36:03;5.93;;;3.53;;
24407;SDS011;12542;50.924;4.516;2023-11-18T10:38:38;7.18;;;3.58;;
24407;SDS011;12542;50.924;4.516;2023-11-18T10:41:14;10.80;;;4.78;;
24407;SDS011;12542;50.924;4.516;2023-11-18T10:43:42;10.00;;;3.92;;
24407;SDS011;12542;50.924;4.516;2023-11-18T10:46:10;11.75;;;4.03;;
24407;SDS011;12542;50.924;4.516;2023-11-18T10:48:40;9.18;;;4.45;;
24407;SDS011;12542;50.924;4.516;2023-11-18T10:51:14;12.20;;;3.90;;
24407;SDS011;12542;50.924;4.516;2023-11-18T10:53:44;8.82;;;3.67;;
24407;SDS011;12542;50.924;4.516;2023-11-18T10:56:23;10.50;;;3.90;;
24407;SDS011;12542;50.924;4.516;2023-11-18T10:58:58;4.47;;;3.13;;
24407;SDS011;12542;50.924;4.516;2023-11-18T11:03:59;5.72;;;2.80;;
24407;SDS011;12542;50.924;4.516;2023-11-18T11:06:25;6.97;;;2.63;;
24407;SDS011;12542;50.924;4.516;2023-11-18T11:08:55;5.90;;;3.50;;
24407;SDS011;12542;50.924;4.516;2023-11-18T11:11:24;11.27;;;2.97;;
24407;SDS011;12542;50.924;4.516;2023-11-18T11:13:56;5.05;;;2.60;;
24407;SDS011;12542;50.924;4.516;2023-11-18T11:16:22;4.47;;;2.63;;
24407;SDS011;12542;50.924;4.516;2023-11-18T11:18:58;6.05;;;2.83;;
24407;SDS011;12542;50.924;4.516;2023-11-18T11:21:37;8.02;;;2.70;;
24407;SDS011;12542;50.924;4.516;2023-11-18T11:24:15;5.88;;;2.33;;
24407;SDS011;12542;50.924;4.516;2023-11-18T11:27:07;5.80;;;3.17;;
24407;SDS011;12542;50.924;4.516;2023-11-18T11:29:50;4.68;;;2.35;;
24407;SDS011;12542;50.924;4.516;2023-11-18T11:32:25;3.95;;;2.03;;
24407;SDS011;12542;50.924;4.516;2023-11-18T11:35:06;4.10;;;2.13;;
24407;SDS011;12542;50.924;4.516;2023-11-18T11:37:41;4.22;;;2.40;;
24407;SDS011;12542;50.924;4.516;2023-11-18T11:40:08;4.25;;;1.98;;
24407;SDS011;12542;50.924;4.516;2023-11-18T11:42:36;5.00;;;2.03;;
24407;SDS011;12542;50.924;4.516;2023-11-18T11:45:05;6.05;;;2.83;;
24407;SDS011;12542;50.924;4.516;2023-11-18T11:47:44;6.85;;;2.95;;
24407;SDS011;12542;50.924;4.516;2023-11-18T11:50:36;2.28;;;1.55;;
24407;SDS011;12542;50.924;4.516;2023-11-18T11:53:09;6.22;;;2.03;;
24407;SDS011;12542;50.924;4.516;2023-11-18T11:55:49;3.67;;;1.42;;
24407;SDS011;12542;50.924;4.516;2023-11-18T12:01:01;4.68;;;1.42;;
24407;SDS011;12542;50.924;4.516;2023-11-18T12:03:43;4.88;;;1.33;;
24407;SDS011;12542;50.924;4.516;2023-11-18T12:06:13;2.38;;;1.10;;
24407;SDS011;12542;50.924;4.516;2023-11-18T12:08:48;2.83;;;0.93;;
24407;SDS011;12542;50.924;4.516;2023-11-18T12:11:18;1.95;;;0.98;;
24407;SDS011;12542;50.924;4.516;2023-11-18T12:14:04;2.47;;;1.35;;
24407;SDS011;12542;50.924;4.516;2023-11-18T12:19:33;5.57;;;1.20;;
24407;SDS011;12542;50.924;4.516;2023-11-18T12:22:12;3.85;;;0.90;;
24407;SDS011;12542;50.924;4.516;2023-11-18T12:24:42;3.33;;;1.10;;
24407;SDS011;12542;50.924;4.516;2023-11-18T12:35:23;2.58;;;1.00;;
24407;SDS011;12542;50.924;4.516;2023-11-18T12:44:08;2.40;;;1.00;;
24407;SDS011;12542;50.924;4.516;2023-11-18T12:48:48;2.95;;;0.95;;
24407;SDS011;12542;50.924;4.516;2023-11-18T12:51:16;3.15;;;1.17;;
24407;SDS011;12542;50.924;4.516;2023-11-18T12:53:48;1.92;;;0.95;;
24407;SDS011;12542;50.924;4.516;2023-11-18T12:56:19;3.33;;;1.10;;
24407;SDS011;12542;50.924;4.516;2023-11-18T12:58:48;1.60;;;0.75;;
24407;SDS011;12542;50.924;4.516;2023-11-18T13:01:14;1.73;;;0.93;;
24407;SDS011;12542;50.924;4.516;2023-11-18T13:03:41;4.63;;;1.38;;
24407;SDS011;12542;50.924;4.516;2023-11-18T13:06:16;1.40;;;0.70;;
24407;SDS011;12542;50.924;4.516;2023-11-18T13:08:42;1.38;;;0.70;;
24407;SDS011;12542;50.924;4.516;2023-11-18T13:11:07;2.40;;;0.80;;
24407;SDS011;12542;50.924;4.516;2023-11-18T13:13:40;1.25;;;0.60;;
24407;SDS011;12542;50.924;4.516;2023-11-18T13:16:10;0.90;;;0.55;;
24407;SDS011;12542;50.924;4.516;2023-11-18T13:18:45;1.65;;;0.65;;
24407;SDS011;12542;50.924;4.516;2023-11-18T13:21:15;2.53;;;0.70;;
24407;SDS011;12542;50.924;4.516;2023-11-18T13:23:41;0.93;;;0.60;;
24407;SDS011;12542;50.924;4.516;2023-11-18T13:26:12;1.15;;;0.60;;
24407;SDS011;12542;50.924;4.516;2023-11-18T13:28:40;3.42;;;0.82;;
24407;SDS011;12542;50.924;4.516;2023-11-18T13:31:07;1.90;;;0.57;;
24407;SDS011;12542;50.924;4.516;2023-11-18T13:33:38;1.70;;;0.60;;
24407;SDS011;12542;50.924;4.516;2023-11-18T13:36:07;0.95;;;0.45;;
24407;SDS011;12542;50.924;4.516;2023-11-18T13:38:37;1.02;;;0.70;;
24407;SDS011;12542;50.924;4.516;2023-11-18T13:41:03;1.58;;;0.55;;
24407;SDS011;12542;50.924;4.516;2023-11-18T13:43:45;3.20;;;1.02;;
24407;SDS011;12542;50.924;4.516;2023-11-18T13:46:14;3.10;;;0.65;;
24407;SDS011;12542;50.924;4.516;2023-11-18T13:48:46;15.10;;;1.40;;
24407;SDS011;12542;50.924;4.516;2023-11-18T13:51:14;2.50;;;0.90;;
24407;SDS011;12542;50.924;4.516;2023-11-18T13:53:44;1.17;;;0.65;;
24407;SDS011;12542;50.924;4.516;2023-11-18T13:56:11;1.15;;;0.60;;
24407;SDS011;12542;50.924;4.516;2023-11-18T13:58:42;3.67;;;2.08;;
24407;SDS011;12542;50.924;4.516;2023-11-18T14:01:10;1.75;;;1.23;;
24407;SDS011;12542;50.924;4.516;2023-11-18T14:03:39;1.98;;;1.17;;
24407;SDS011;12542;50.924;4.516;2023-11-18T14:06:06;1.67;;;0.50;;
24407;SDS011;12542;50.924;4.516;2023-11-18T14:08:35;2.75;;;0.90;;
24407;SDS011;12542;50.924;4.516;2023-11-18T14:11:04;2.53;;;1.30;;
24407;SDS011;12542;50.924;4.516;2023-11-18T14:13:31;1.90;;;1.27;;
24407;SDS011;12542;50.924;4.516;2023-11-18T14:15:59;2.28;;;1.00;;
24407;SDS011;12542;50.924;4.516;2023-11-18T14:18:26;1.30;;;0.80;;
24407;SDS011;12542;50.924;4.516;2023-11-18T14:20:52;1.60;;;0.80;;
24407;SDS011;12542;50.924;4.516;2023-11-18T14:23:18;1.05;;;0.70;;
24407;SDS011;12542;50.924;4.516;2023-11-18T14:25:44;2.97;;;0.80;;
24407;SDS011;12542;50.924;4.516;2023-11-18T14:28:11;1.27;;;0.60;;
24407;SDS011;12542;50.924;4.516;2023-11-18T14:30:37;1.48;;;0.85;;
24407;SDS011;12542;50.924;4.516;2023-11-18T14:33:03;2.53;;;1.48;;
24407;SDS011;12542;50.924;4.516;2023-11-18T14:35:32;2.17;;;1.25;;
24407;SDS011;12542;50.924;4.516;2023-11-18T14:37:58;4.88;;;1.40;;
24407;SDS011;12542;50.924;4.516;2023-11-18T14:40:27;2.97;;;0.77;;
24407;SDS011;12542;50.924;4.516;2023-11-18T14:42:53;2.65;;;0.95;;
24407;SDS011;12542;50.924;4.516;2023-11-18T14:45:20;2.85;;;0.80;;
24407;SDS011;12542;50.924;4.516;2023-11-18T14:47:46;1.90;;;0.90;;
24407;SDS011;12542;50.924;4.516;2023-11-18T14:50:19;2.08;;;0.90;;
24407;SDS011;12542;50.924;4.516;2023-11-18T14:52:46;1.25;;;0.55;;
24407;SDS011;12542;50.924;4.516;2023-11-18T14:55:13;1.45;;;0.80;;
24407;SDS011;12542;50.924;4.516;2023-11-18T14:57:42;1.90;;;0.73;;
24407;SDS011;12542;50.924;4.516;2023-11-18T15:00:09;0.95;;;0.50;;
24407;SDS011;12542;50.924;4.516;2023-11-18T15:02:47;2.58;;;0.68;;
24407;SDS011;12542;50.924;4.516;2023-11-18T15:05:17;1.75;;;0.82;;
24407;SDS011;12542;50.924;4.516;2023-11-18T15:07:53;1.63;;;0.50;;
24407;SDS011;12542;50.924;4.516;2023-11-18T15:10:23;0.65;;;0.47;;
24407;SDS011;12542;50.924;4.516;2023-11-18T15:12:51;2.90;;;0.70;;
24407;SDS011;12542;50.924;4.516;2023-11-18T15:15:23;4.75;;;0.65;;
24407;SDS011;12542;50.924;4.516;2023-11-18T15:17:57;0.88;;;0.50;;
24407;SDS011;12542;50.924;4.516;2023-11-18T15:20:23;1.08;;;0.68;;
24407;SDS011;12542;50.924;4.516;2023-11-18T15:22:50;1.60;;;0.75;;
24407;SDS011;12542;50.924;4.516;2023-11-18T15:25:16;1.25;;;0.60;;
24407;SDS011;12542;50.924;4.516;2023-11-18T15:27:45;2.13;;;0.60;;
24407;SDS011;12542;50.924;4.516;2023-11-18T15:30:15;0.75;;;0.50;;
24407;SDS011;12542;50.924;4.516;2023-11-18T15:32:45;1.40;;;0.60;;